sensor_id;sensor_type;location;lat;lon;timestamp;P1;P2;P0
70436;PMS5003;57877;39.750;-104.894;2023-02-11T00:01:07;0;0;
70436;PMS5003;57877;39.750;-104.894;2023-02-11T00:03:32;0;0;
70436;PMS5003;57877;39.750;-104.894;2023-02-11T00:05:58;0;0;
70436;PMS5003;57877;39.750;-104.894;2023-02-11T00:08:24;0;0;
70436;PMS5003;57877;39.750;-104.894;2023-02-11T00:10:51;0;0;
70436;PMS5003;57877;39.750;-104.894;2023-02-11T00:13:16;0;0;
70436;PMS5003;57877;39.750;-104.894;2023-02-11T00:15:42;0;0;
70436;PMS5003;57877;39.750;-104.894;2023-02-11T00:18:08;0;0;
70436;PMS5003;57877;39.750;-104.894;2023-02-11T00:20:34;0;0;
70436;PMS5003;57877;39.750;-104.894;2023-02-11T00:23:00;0;0;
70436;PMS5003;57877;39.750;-104.894;2023-02-11T00:25:26;0;0;
70436;PMS5003;57877;39.750;-104.894;2023-02-11T00:27:52;0;0;
70436;PMS5003;57877;39.750;-104.894;2023-02-11T00:30:18;0;0;
70436;PMS5003;57877;39.750;-104.894;2023-02-11T00:32:44;0;0;
70436;PMS5003;57877;39.750;-104.894;2023-02-11T00:35:10;0;0;
70436;PMS5003;57877;39.750;-104.894;2023-02-11T00:37:36;0;0;
70436;PMS5003;57877;39.750;-104.894;2023-02-11T00:40:02;0;0;
70436;PMS5003;57877;39.750;-104.894;2023-02-11T00:42:28;0;0;
70436;PMS5003;57877;39.750;-104.894;2023-02-11T00:44:54;0;0;
70436;PMS5003;57877;39.750;-104.894;2023-02-11T00:47:20;0;0;
70436;PMS5003;57877;39.750;-104.894;2023-02-11T00:49:46;1;1;
70436;PMS5003;57877;39.750;-104.894;2023-02-11T00:52:12;3;2;
70436;PMS5003;57877;39.750;-104.894;2023-02-11T00:54:38;0;0;
70436;PMS5003;57877;39.750;-104.894;2023-02-11T00:57:04;0;0;
70436;PMS5003;57877;39.750;-104.894;2023-02-11T00:59:30;1;1;
70436;PMS5003;57877;39.750;-104.894;2023-02-11T01:01:56;1;0;
70436;PMS5003;57877;39.750;-104.894;2023-02-11T01:04:22;0;0;
70436;PMS5003;57877;39.750;-104.894;2023-02-11T01:06:48;1;0;
70436;PMS5003;57877;39.750;-104.894;2023-02-11T01:09:14;2;2;
70436;PMS5003;57877;39.750;-104.894;2023-02-11T01:11:40;1;1;
70436;PMS5003;57877;39.750;-104.894;2023-02-11T01:14:06;0;0;
70436;PMS5003;57877;39.750;-104.894;2023-02-11T01:16:31;2;2;
70436;PMS5003;57877;39.750;-104.894;2023-02-11T01:18:57;2;2;
70436;PMS5003;57877;39.750;-104.894;2023-02-11T01:21:22;3;3;
70436;PMS5003;57877;39.750;-104.894;2023-02-11T01:23:48;4;4;
70436;PMS5003;57877;39.750;-104.894;2023-02-11T01:26:13;3;2;
70436;PMS5003;57877;39.750;-104.894;2023-02-11T01:28:39;3;3;
70436;PMS5003;57877;39.750;-104.894;2023-02-11T01:31:04;3;2;
70436;PMS5003;57877;39.750;-104.894;2023-02-11T01:33:29;3;1;
70436;PMS5003;57877;39.750;-104.894;2023-02-11T01:35:59;1;1;
70436;PMS5003;57877;39.750;-104.894;2023-02-11T01:38:22;4;3;
70436;PMS5003;57877;39.750;-104.894;2023-02-11T01:40:48;3;3;
70436;PMS5003;57877;39.750;-104.894;2023-02-11T01:43:13;3;3;
70436;PMS5003;57877;39.750;-104.894;2023-02-11T01:45:43;6;5;
70436;PMS5003;57877;39.750;-104.894;2023-02-11T01:48:05;9;6;
70436;PMS5003;57877;39.750;-104.894;2023-02-11T01:50:30;5;4;
70436;PMS5003;57877;39.750;-104.894;2023-02-11T01:52:55;4;4;
70436;PMS5003;57877;39.750;-104.894;2023-02-11T01:55:21;7;7;
70436;PMS5003;57877;39.750;-104.894;2023-02-11T01:57:46;8;5;
70436;PMS5003;57877;39.750;-104.894;2023-02-11T02:00:12;4;4;
70436;PMS5003;57877;39.750;-104.894;2023-02-11T02:02:39;5;5;
70436;PMS5003;57877;39.750;-104.894;2023-02-11T02:05:04;6;5;
70436;PMS5003;57877;39.750;-104.894;2023-02-11T02:07:29;7;6;
70436;PMS5003;57877;39.750;-104.894;2023-02-11T02:09:54;4;4;
70436;PMS5003;57877;39.750;-104.894;2023-02-11T02:12:18;5;4;
70436;PMS5003;57877;39.750;-104.894;2023-02-11T02:14:44;4;4;
70436;PMS5003;57877;39.750;-104.894;2023-02-11T02:17:12;5;5;
70436;PMS5003;57877;39.750;-104.894;2023-02-11T02:26:57;8;7;
70436;PMS5003;57877;39.750;-104.894;2023-02-11T02:29:24;5;5;
70436;PMS5003;57877;39.750;-104.894;2023-02-11T02:31:48;5;4;
70436;PMS5003;57877;39.750;-104.894;2023-02-11T02:34:11;2;2;
70436;PMS5003;57877;39.750;-104.894;2023-02-11T02:36:36;2;2;
70436;PMS5003;57877;39.750;-104.894;2023-02-11T02:39:01;2;2;
70436;PMS5003;57877;39.750;-104.894;2023-02-11T02:41:25;3;3;
70436;PMS5003;57877;39.750;-104.894;2023-02-11T02:43:49;0;0;
70436;PMS5003;57877;39.750;-104.894;2023-02-11T02:46:14;2;2;
70436;PMS5003;57877;39.750;-104.894;2023-02-11T02:48:39;1;1;
70436;PMS5003;57877;39.750;-104.894;2023-02-11T02:51:07;1;1;
70436;PMS5003;57877;39.750;-104.894;2023-02-11T02:53:31;1;1;
70436;PMS5003;57877;39.750;-104.894;2023-02-11T02:55:56;1;1;
70436;PMS5003;57877;39.750;-104.894;2023-02-11T03:00:46;2;2;
70436;PMS5003;57877;39.750;-104.894;2023-02-11T03:03:15;1;1;
70436;PMS5003;57877;39.750;-104.894;2023-02-11T03:05:37;1;0;
70436;PMS5003;57877;39.750;-104.894;2023-02-11T03:08:01;1;1;
70436;PMS5003;57877;39.750;-104.894;2023-02-11T03:10:25;2;2;
70436;PMS5003;57877;39.750;-104.894;2023-02-11T03:12:49;2;1;
70436;PMS5003;57877;39.750;-104.894;2023-02-11T03:15:15;2;2;
70436;PMS5003;57877;39.750;-104.894;2023-02-11T03:17:41;2;2;
70436;PMS5003;57877;39.750;-104.894;2023-02-11T03:20:08;2;1;
70436;PMS5003;57877;39.750;-104.894;2023-02-11T03:22:34;2;1;
70436;PMS5003;57877;39.750;-104.894;2023-02-11T03:24:57;2;1;
70436;PMS5003;57877;39.750;-104.894;2023-02-11T03:27:26;2;2;
70436;PMS5003;57877;39.750;-104.894;2023-02-11T03:29:50;4;3;
70436;PMS5003;57877;39.750;-104.894;2023-02-11T03:32:16;1;1;
70436;PMS5003;57877;39.750;-104.894;2023-02-11T03:34:41;2;2;
70436;PMS5003;57877;39.750;-104.894;2023-02-11T03:37:05;3;2;
70436;PMS5003;57877;39.750;-104.894;2023-02-11T03:39:32;0;0;
70436;PMS5003;57877;39.750;-104.894;2023-02-11T03:41:55;1;1;
70436;PMS5003;57877;39.750;-104.894;2023-02-11T03:44:20;2;2;
70436;PMS5003;57877;39.750;-104.894;2023-02-11T03:46:48;2;2;
70436;PMS5003;57877;39.750;-104.894;2023-02-11T03:49:12;3;3;
70436;PMS5003;57877;39.750;-104.894;2023-02-11T03:51:36;2;2;
70436;PMS5003;57877;39.750;-104.894;2023-02-11T03:54:02;2;2;
70436;PMS5003;57877;39.750;-104.894;2023-02-11T03:56:28;4;3;
70436;PMS5003;57877;39.750;-104.894;2023-02-11T03:58:52;0;0;
70436;PMS5003;57877;39.750;-104.894;2023-02-11T04:01:17;3;2;
70436;PMS5003;57877;39.750;-104.894;2023-02-11T04:03:43;3;3;
70436;PMS5003;57877;39.750;-104.894;2023-02-11T04:06:08;2;2;
70436;PMS5003;57877;39.750;-104.894;2023-02-11T04:08:33;3;3;
70436;PMS5003;57877;39.750;-104.894;2023-02-11T04:10:58;1;1;
70436;PMS5003;57877;39.750;-104.894;2023-02-11T04:13:23;1;1;
70436;PMS5003;57877;39.750;-104.894;2023-02-11T04:15:48;1;1;
70436;PMS5003;57877;39.750;-104.894;2023-02-11T04:18:13;0;0;
70436;PMS5003;57877;39.750;-104.894;2023-02-11T04:20:38;1;1;
70436;PMS5003;57877;39.750;-104.894;2023-02-11T04:23:03;2;2;
70436;PMS5003;57877;39.750;-104.894;2023-02-11T04:25:28;3;3;
70436;PMS5003;57877;39.750;-104.894;2023-02-11T04:27:53;3;3;
70436;PMS5003;57877;39.750;-104.894;2023-02-11T04:30:18;0;0;
70436;PMS5003;57877;39.750;-104.894;2023-02-11T04:32:43;4;2;
70436;PMS5003;57877;39.750;-104.894;2023-02-11T04:35:09;2;2;
70436;PMS5003;57877;39.750;-104.894;2023-02-11T04:37:34;2;2;
70436;PMS5003;57877;39.750;-104.894;2023-02-11T04:40:00;3;3;
70436;PMS5003;57877;39.750;-104.894;2023-02-11T04:42:25;2;2;
70436;PMS5003;57877;39.750;-104.894;2023-02-11T04:44:51;1;1;
70436;PMS5003;57877;39.750;-104.894;2023-02-11T04:47:17;2;2;
70436;PMS5003;57877;39.750;-104.894;2023-02-11T04:49:42;1;1;
70436;PMS5003;57877;39.750;-104.894;2023-02-11T04:52:07;2;2;
70436;PMS5003;57877;39.750;-104.894;2023-02-11T04:54:32;1;1;
70436;PMS5003;57877;39.750;-104.894;2023-02-11T04:56:57;1;1;
70436;PMS5003;57877;39.750;-104.894;2023-02-11T04:59:22;2;2;
70436;PMS5003;57877;39.750;-104.894;2023-02-11T05:01:47;2;1;
70436;PMS5003;57877;39.750;-104.894;2023-02-11T05:04:12;6;5;
70436;PMS5003;57877;39.750;-104.894;2023-02-11T05:06:37;3;3;
70436;PMS5003;57877;39.750;-104.894;2023-02-11T05:09:03;3;3;
70436;PMS5003;57877;39.750;-104.894;2023-02-11T05:11:29;3;3;
70436;PMS5003;57877;39.750;-104.894;2023-02-11T05:13:54;3;3;
70436;PMS5003;57877;39.750;-104.894;2023-02-11T05:16:19;2;2;
70436;PMS5003;57877;39.750;-104.894;2023-02-11T05:18:45;2;2;
70436;PMS5003;57877;39.750;-104.894;2023-02-11T05:21:10;1;1;
70436;PMS5003;57877;39.750;-104.894;2023-02-11T05:23:36;2;2;
70436;PMS5003;57877;39.750;-104.894;2023-02-11T05:26:01;2;2;
70436;PMS5003;57877;39.750;-104.894;2023-02-11T05:28:26;0;0;
70436;PMS5003;57877;39.750;-104.894;2023-02-11T05:30:51;2;2;
70436;PMS5003;57877;39.750;-104.894;2023-02-11T05:33:17;3;2;
70436;PMS5003;57877;39.750;-104.894;2023-02-11T05:35:42;2;2;
70436;PMS5003;57877;39.750;-104.894;2023-02-11T05:38:08;0;0;
70436;PMS5003;57877;39.750;-104.894;2023-02-11T05:40:33;1;1;
70436;PMS5003;57877;39.750;-104.894;2023-02-11T05:42:58;1;0;
70436;PMS5003;57877;39.750;-104.894;2023-02-11T05:45:24;1;1;
70436;PMS5003;57877;39.750;-104.894;2023-02-11T05:47:49;2;2;
70436;PMS5003;57877;39.750;-104.894;2023-02-11T05:57:32;2;2;
70436;PMS5003;57877;39.750;-104.894;2023-02-11T05:59:58;2;2;
70436;PMS5003;57877;39.750;-104.894;2023-02-11T06:02:23;1;1;
70436;PMS5003;57877;39.750;-104.894;2023-02-11T06:04:48;3;3;
70436;PMS5003;57877;39.750;-104.894;2023-02-11T06:07:13;3;3;
70436;PMS5003;57877;39.750;-104.894;2023-02-11T06:09:38;4;1;
70436;PMS5003;57877;39.750;-104.894;2023-02-11T06:12:03;1;1;
70436;PMS5003;57877;39.750;-104.894;2023-02-11T06:14:28;3;2;
70436;PMS5003;57877;39.750;-104.894;2023-02-11T06:16:53;3;3;
70436;PMS5003;57877;39.750;-104.894;2023-02-11T06:19:18;3;3;
70436;PMS5003;57877;39.750;-104.894;2023-02-11T06:21:44;2;2;
70436;PMS5003;57877;39.750;-104.894;2023-02-11T06:24:08;3;2;
70436;PMS5003;57877;39.750;-104.894;2023-02-11T06:26:33;2;2;
70436;PMS5003;57877;39.750;-104.894;2023-02-11T06:28:59;4;4;
70436;PMS5003;57877;39.750;-104.894;2023-02-11T06:31:24;2;2;
70436;PMS5003;57877;39.750;-104.894;2023-02-11T06:33:49;3;2;
70436;PMS5003;57877;39.750;-104.894;2023-02-11T06:36:15;2;1;
70436;PMS5003;57877;39.750;-104.894;2023-02-11T06:38:39;2;2;
70436;PMS5003;57877;39.750;-104.894;2023-02-11T06:41:04;1;1;
70436;PMS5003;57877;39.750;-104.894;2023-02-11T06:43:29;1;1;
70436;PMS5003;57877;39.750;-104.894;2023-02-11T06:45:59;3;3;
70436;PMS5003;57877;39.750;-104.894;2023-02-11T06:48:20;4;4;
70436;PMS5003;57877;39.750;-104.894;2023-02-11T06:50:45;3;2;
70436;PMS5003;57877;39.750;-104.894;2023-02-11T06:53:10;2;1;
70436;PMS5003;57877;39.750;-104.894;2023-02-11T06:55:35;3;2;
70436;PMS5003;57877;39.750;-104.894;2023-02-11T06:58:00;2;2;
70436;PMS5003;57877;39.750;-104.894;2023-02-11T07:00:26;2;2;
70436;PMS5003;57877;39.750;-104.894;2023-02-11T07:02:51;0;0;
70436;PMS5003;57877;39.750;-104.894;2023-02-11T07:05:16;1;1;
70436;PMS5003;57877;39.750;-104.894;2023-02-11T07:07:41;5;4;
70436;PMS5003;57877;39.750;-104.894;2023-02-11T07:10:06;3;3;
70436;PMS5003;57877;39.750;-104.894;2023-02-11T07:12:31;4;4;
70436;PMS5003;57877;39.750;-104.894;2023-02-11T07:14:56;5;3;
70436;PMS5003;57877;39.750;-104.894;2023-02-11T07:17:21;4;4;
70436;PMS5003;57877;39.750;-104.894;2023-02-11T07:19:47;3;2;
70436;PMS5003;57877;39.750;-104.894;2023-02-11T07:22:12;2;2;
70436;PMS5003;57877;39.750;-104.894;2023-02-11T07:24:37;3;3;
70436;PMS5003;57877;39.750;-104.894;2023-02-11T07:27:02;3;3;
70436;PMS5003;57877;39.750;-104.894;2023-02-11T07:29:27;1;1;
70436;PMS5003;57877;39.750;-104.894;2023-02-11T07:31:52;1;1;
70436;PMS5003;57877;39.750;-104.894;2023-02-11T07:34:18;1;1;
70436;PMS5003;57877;39.750;-104.894;2023-02-11T07:36:44;0;0;
70436;PMS5003;57877;39.750;-104.894;2023-02-11T07:39:10;2;2;
70436;PMS5003;57877;39.750;-104.894;2023-02-11T07:41:35;1;1;
70436;PMS5003;57877;39.750;-104.894;2023-02-11T07:44:01;2;2;
70436;PMS5003;57877;39.750;-104.894;2023-02-11T07:46:25;1;1;
70436;PMS5003;57877;39.750;-104.894;2023-02-11T07:48:51;2;2;
70436;PMS5003;57877;39.750;-104.894;2023-02-11T07:51:18;2;1;
70436;PMS5003;57877;39.750;-104.894;2023-02-11T07:53:42;0;0;
70436;PMS5003;57877;39.750;-104.894;2023-02-11T07:56:08;0;0;
70436;PMS5003;57877;39.750;-104.894;2023-02-11T07:58:33;0;0;
70436;PMS5003;57877;39.750;-104.894;2023-02-11T08:01:00;1;1;
70436;PMS5003;57877;39.750;-104.894;2023-02-11T08:03:23;0;0;
70436;PMS5003;57877;39.750;-104.894;2023-02-11T08:05:48;1;1;
70436;PMS5003;57877;39.750;-104.894;2023-02-11T08:08:13;0;0;
70436;PMS5003;57877;39.750;-104.894;2023-02-11T08:10:38;0;0;
70436;PMS5003;57877;39.750;-104.894;2023-02-11T08:13:04;0;0;
70436;PMS5003;57877;39.750;-104.894;2023-02-11T08:15:31;1;1;
70436;PMS5003;57877;39.750;-104.894;2023-02-11T08:17:57;0;0;
70436;PMS5003;57877;39.750;-104.894;2023-02-11T08:20:23;0;0;
70436;PMS5003;57877;39.750;-104.894;2023-02-11T08:22:48;0;0;
70436;PMS5003;57877;39.750;-104.894;2023-02-11T08:25:13;0;0;
70436;PMS5003;57877;39.750;-104.894;2023-02-11T08:27:38;0;0;
70436;PMS5003;57877;39.750;-104.894;2023-02-11T08:30:03;0;0;
70436;PMS5003;57877;39.750;-104.894;2023-02-11T08:32:29;0;0;
70436;PMS5003;57877;39.750;-104.894;2023-02-11T08:34:54;0;0;
70436;PMS5003;57877;39.750;-104.894;2023-02-11T08:37:19;0;0;
70436;PMS5003;57877;39.750;-104.894;2023-02-11T08:39:44;0;0;
70436;PMS5003;57877;39.750;-104.894;2023-02-11T08:42:09;0;0;
70436;PMS5003;57877;39.750;-104.894;2023-02-11T08:44:34;0;0;
70436;PMS5003;57877;39.750;-104.894;2023-02-11T08:46:59;0;0;
70436;PMS5003;57877;39.750;-104.894;2023-02-11T08:49:24;0;0;
70436;PMS5003;57877;39.750;-104.894;2023-02-11T08:51:49;0;0;
70436;PMS5003;57877;39.750;-104.894;2023-02-11T08:54:15;0;0;
70436;PMS5003;57877;39.750;-104.894;2023-02-11T08:56:39;0;0;
70436;PMS5003;57877;39.750;-104.894;2023-02-11T08:59:05;0;0;
70436;PMS5003;57877;39.750;-104.894;2023-02-11T09:01:30;0;0;
70436;PMS5003;57877;39.750;-104.894;2023-02-11T09:03:55;0;0;
70436;PMS5003;57877;39.750;-104.894;2023-02-11T09:06:20;0;0;
70436;PMS5003;57877;39.750;-104.894;2023-02-11T09:08:46;0;0;
70436;PMS5003;57877;39.750;-104.894;2023-02-11T09:11:10;0;0;
70436;PMS5003;57877;39.750;-104.894;2023-02-11T09:13:35;0;0;
70436;PMS5003;57877;39.750;-104.894;2023-02-11T09:16:01;0;0;
70436;PMS5003;57877;39.750;-104.894;2023-02-11T09:18:25;0;0;
70436;PMS5003;57877;39.750;-104.894;2023-02-11T09:20:50;0;0;
70436;PMS5003;57877;39.750;-104.894;2023-02-11T09:23:15;0;0;
70436;PMS5003;57877;39.750;-104.894;2023-02-11T09:25:40;0;0;
70436;PMS5003;57877;39.750;-104.894;2023-02-11T09:28:05;0;0;
70436;PMS5003;57877;39.750;-104.894;2023-02-11T09:30:30;0;0;
70436;PMS5003;57877;39.750;-104.894;2023-02-11T09:32:55;0;0;
70436;PMS5003;57877;39.750;-104.894;2023-02-11T09:35:20;0;0;
70436;PMS5003;57877;39.750;-104.894;2023-02-11T09:37:45;0;0;
70436;PMS5003;57877;39.750;-104.894;2023-02-11T09:40:11;0;0;
70436;PMS5003;57877;39.750;-104.894;2023-02-11T09:42:41;0;0;
70436;PMS5003;57877;39.750;-104.894;2023-02-11T09:45:02;0;0;
70436;PMS5003;57877;39.750;-104.894;2023-02-11T09:47:27;0;0;
70436;PMS5003;57877;39.750;-104.894;2023-02-11T09:49:53;0;0;
70436;PMS5003;57877;39.750;-104.894;2023-02-11T09:52:17;0;0;
70436;PMS5003;57877;39.750;-104.894;2023-02-11T09:54:44;0;0;
70436;PMS5003;57877;39.750;-104.894;2023-02-11T09:57:08;0;0;
70436;PMS5003;57877;39.750;-104.894;2023-02-11T09:59:32;0;0;
70436;PMS5003;57877;39.750;-104.894;2023-02-11T10:01:59;0;0;
70436;PMS5003;57877;39.750;-104.894;2023-02-11T10:04:26;0;0;
70436;PMS5003;57877;39.750;-104.894;2023-02-11T10:06:49;0;0;
70436;PMS5003;57877;39.750;-104.894;2023-02-11T10:11:40;0;0;
70436;PMS5003;57877;39.750;-104.894;2023-02-11T10:14:07;0;0;
70436;PMS5003;57877;39.750;-104.894;2023-02-11T10:16:32;0;0;
70436;PMS5003;57877;39.750;-104.894;2023-02-11T10:19:00;0;0;
70436;PMS5003;57877;39.750;-104.894;2023-02-11T10:21:20;0;0;
70436;PMS5003;57877;39.750;-104.894;2023-02-11T10:23:44;0;0;
70436;PMS5003;57877;39.750;-104.894;2023-02-11T10:26:10;0;0;
70436;PMS5003;57877;39.750;-104.894;2023-02-11T10:28:35;0;0;
70436;PMS5003;57877;39.750;-104.894;2023-02-11T10:31:00;0;0;
70436;PMS5003;57877;39.750;-104.894;2023-02-11T10:33:24;0;0;
70436;PMS5003;57877;39.750;-104.894;2023-02-11T10:35:49;0;0;
70436;PMS5003;57877;39.750;-104.894;2023-02-11T10:38:14;0;0;
70436;PMS5003;57877;39.750;-104.894;2023-02-11T10:40:39;0;0;
70436;PMS5003;57877;39.750;-104.894;2023-02-11T10:43:05;0;0;
70436;PMS5003;57877;39.750;-104.894;2023-02-11T10:45:31;0;0;
70436;PMS5003;57877;39.750;-104.894;2023-02-11T10:47:54;0;0;
70436;PMS5003;57877;39.750;-104.894;2023-02-11T10:50:20;0;0;
70436;PMS5003;57877;39.750;-104.894;2023-02-11T10:52:44;0;0;
70436;PMS5003;57877;39.750;-104.894;2023-02-11T10:55:13;0;0;
70436;PMS5003;57877;39.750;-104.894;2023-02-11T10:57:35;0;0;
70436;PMS5003;57877;39.750;-104.894;2023-02-11T11:00:03;0;0;
70436;PMS5003;57877;39.750;-104.894;2023-02-11T11:02:26;0;0;
70436;PMS5003;57877;39.750;-104.894;2023-02-11T11:04:49;0;0;
70436;PMS5003;57877;39.750;-104.894;2023-02-11T11:07:15;0;0;
70436;PMS5003;57877;39.750;-104.894;2023-02-11T11:09:43;0;0;
70436;PMS5003;57877;39.750;-104.894;2023-02-11T11:12:04;0;0;
70436;PMS5003;57877;39.750;-104.894;2023-02-11T11:14:29;0;0;
70436;PMS5003;57877;39.750;-104.894;2023-02-11T11:16:55;0;0;
70436;PMS5003;57877;39.750;-104.894;2023-02-11T11:19:20;0;0;
70436;PMS5003;57877;39.750;-104.894;2023-02-11T11:21:45;0;0;
70436;PMS5003;57877;39.750;-104.894;2023-02-11T11:24:14;0;0;
70436;PMS5003;57877;39.750;-104.894;2023-02-11T11:26:39;0;0;
70436;PMS5003;57877;39.750;-104.894;2023-02-11T11:29:01;0;0;
70436;PMS5003;57877;39.750;-104.894;2023-02-11T11:31:27;0;0;
70436;PMS5003;57877;39.750;-104.894;2023-02-11T11:33:50;0;0;
70436;PMS5003;57877;39.750;-104.894;2023-02-11T11:36:16;0;0;
70436;PMS5003;57877;39.750;-104.894;2023-02-11T11:38:42;0;0;
70436;PMS5003;57877;39.750;-104.894;2023-02-11T11:43:31;0;0;
70436;PMS5003;57877;39.750;-104.894;2023-02-11T11:45:58;0;0;
70436;PMS5003;57877;39.750;-104.894;2023-02-11T11:48:22;0;0;
70436;PMS5003;57877;39.750;-104.894;2023-02-11T11:50:47;0;0;
70436;PMS5003;57877;39.750;-104.894;2023-02-11T11:53:13;0;0;
70436;PMS5003;57877;39.750;-104.894;2023-02-11T11:55:38;0;0;
70436;PMS5003;57877;39.750;-104.894;2023-02-11T11:58:02;0;0;
70436;PMS5003;57877;39.750;-104.894;2023-02-11T12:00:30;0;0;
70436;PMS5003;57877;39.750;-104.894;2023-02-11T12:05:18;0;0;
70436;PMS5003;57877;39.750;-104.894;2023-02-11T12:07:47;0;0;
70436;PMS5003;57877;39.750;-104.894;2023-02-11T12:12:35;0;0;
70436;PMS5003;57877;39.750;-104.894;2023-02-11T12:15:01;0;0;
70436;PMS5003;57877;39.750;-104.894;2023-02-11T12:17:28;0;0;
70436;PMS5003;57877;39.750;-104.894;2023-02-11T12:22:17;0;0;
70436;PMS5003;57877;39.750;-104.894;2023-02-11T12:24:45;0;0;
70436;PMS5003;57877;39.750;-104.894;2023-02-11T12:27:04;0;0;
70436;PMS5003;57877;39.750;-104.894;2023-02-11T12:29:29;0;0;
70436;PMS5003;57877;39.750;-104.894;2023-02-11T12:31:58;0;0;
70436;PMS5003;57877;39.750;-104.894;2023-02-11T12:34:23;0;0;
70436;PMS5003;57877;39.750;-104.894;2023-02-11T12:36:47;0;0;
70436;PMS5003;57877;39.750;-104.894;2023-02-11T12:39:12;0;0;
70436;PMS5003;57877;39.750;-104.894;2023-02-11T12:41:38;0;0;
70436;PMS5003;57877;39.750;-104.894;2023-02-11T12:43:58;0;0;
70436;PMS5003;57877;39.750;-104.894;2023-02-11T12:48:55;0;0;
70436;PMS5003;57877;39.750;-104.894;2023-02-11T12:51:16;0;0;
70436;PMS5003;57877;39.750;-104.894;2023-02-11T12:53:46;0;0;
70436;PMS5003;57877;39.750;-104.894;2023-02-11T12:56:04;0;0;
70436;PMS5003;57877;39.750;-104.894;2023-02-11T12:58:29;0;0;
70436;PMS5003;57877;39.750;-104.894;2023-02-11T13:00:54;0;0;
70436;PMS5003;57877;39.750;-104.894;2023-02-11T13:03:20;0;0;
70436;PMS5003;57877;39.750;-104.894;2023-02-11T13:05:45;0;0;
70436;PMS5003;57877;39.750;-104.894;2023-02-11T13:08:10;0;0;
70436;PMS5003;57877;39.750;-104.894;2023-02-11T13:10:35;0;0;
70436;PMS5003;57877;39.750;-104.894;2023-02-11T13:12:59;0;0;
70436;PMS5003;57877;39.750;-104.894;2023-02-11T13:15:25;0;0;
70436;PMS5003;57877;39.750;-104.894;2023-02-11T13:17:52;0;0;
70436;PMS5003;57877;39.750;-104.894;2023-02-11T13:20:19;0;0;
70436;PMS5003;57877;39.750;-104.894;2023-02-11T13:22:40;0;0;
70436;PMS5003;57877;39.750;-104.894;2023-02-11T13:25:05;0;0;
70436;PMS5003;57877;39.750;-104.894;2023-02-11T13:27:31;0;0;
70436;PMS5003;57877;39.750;-104.894;2023-02-11T13:32:20;0;0;
70436;PMS5003;57877;39.750;-104.894;2023-02-11T13:37:16;0;0;
70436;PMS5003;57877;39.750;-104.894;2023-02-11T13:39:35;0;0;
70436;PMS5003;57877;39.750;-104.894;2023-02-11T13:42:02;0;0;
70436;PMS5003;57877;39.750;-104.894;2023-02-11T13:44:25;0;0;
70436;PMS5003;57877;39.750;-104.894;2023-02-11T13:46:53;0;0;
70436;PMS5003;57877;39.750;-104.894;2023-02-11T13:49:17;0;0;
70436;PMS5003;57877;39.750;-104.894;2023-02-11T13:51:41;0;0;
70436;PMS5003;57877;39.750;-104.894;2023-02-11T13:54:06;0;0;
70436;PMS5003;57877;39.750;-104.894;2023-02-11T13:56:32;0;0;
70436;PMS5003;57877;39.750;-104.894;2023-02-11T13:58:56;0;0;
70436;PMS5003;57877;39.750;-104.894;2023-02-11T14:06:13;0;0;
70436;PMS5003;57877;39.750;-104.894;2023-02-11T14:08:37;0;0;
70436;PMS5003;57877;39.750;-104.894;2023-02-11T14:11:02;0;0;
70436;PMS5003;57877;39.750;-104.894;2023-02-11T14:13:27;0;0;
70436;PMS5003;57877;39.750;-104.894;2023-02-11T14:20:42;0;0;
70436;PMS5003;57877;39.750;-104.894;2023-02-11T14:25:32;0;0;
70436;PMS5003;57877;39.750;-104.894;2023-02-11T14:27:59;0;0;
70436;PMS5003;57877;39.750;-104.894;2023-02-11T14:35:20;0;0;
70436;PMS5003;57877;39.750;-104.894;2023-02-11T14:37:40;0;0;
70436;PMS5003;57877;39.750;-104.894;2023-02-11T14:40:07;0;0;
70436;PMS5003;57877;39.750;-104.894;2023-02-11T14:42:28;0;0;
70436;PMS5003;57877;39.750;-104.894;2023-02-11T14:44:53;0;0;
70436;PMS5003;57877;39.750;-104.894;2023-02-11T14:47:20;0;0;
70436;PMS5003;57877;39.750;-104.894;2023-02-11T14:49:43;0;0;
70436;PMS5003;57877;39.750;-104.894;2023-02-11T14:52:12;0;0;
70436;PMS5003;57877;39.750;-104.894;2023-02-11T14:54:33;0;0;
70436;PMS5003;57877;39.750;-104.894;2023-02-11T14:59:23;0;0;
70436;PMS5003;57877;39.750;-104.894;2023-02-11T15:01:49;0;0;
70436;PMS5003;57877;39.750;-104.894;2023-02-11T15:06:40;0;0;
70436;PMS5003;57877;39.750;-104.894;2023-02-11T15:09:05;0;0;
70436;PMS5003;57877;39.750;-104.894;2023-02-11T15:11:31;0;0;
70436;PMS5003;57877;39.750;-104.894;2023-02-11T15:13:55;0;0;
70436;PMS5003;57877;39.750;-104.894;2023-02-11T15:16:20;0;0;
70436;PMS5003;57877;39.750;-104.894;2023-02-11T15:18:46;0;0;
70436;PMS5003;57877;39.750;-104.894;2023-02-11T15:21:10;0;0;
70436;PMS5003;57877;39.750;-104.894;2023-02-11T15:23:35;0;0;
70436;PMS5003;57877;39.750;-104.894;2023-02-11T15:26:01;0;0;
70436;PMS5003;57877;39.750;-104.894;2023-02-11T15:28:27;0;0;
70436;PMS5003;57877;39.750;-104.894;2023-02-11T15:33:20;0;0;
70436;PMS5003;57877;39.750;-104.894;2023-02-11T15:35:41;0;0;
70436;PMS5003;57877;39.750;-104.894;2023-02-11T15:38:06;0;0;
70436;PMS5003;57877;39.750;-104.894;2023-02-11T15:40:33;0;0;
70436;PMS5003;57877;39.750;-104.894;2023-02-11T15:42:57;0;0;
70436;PMS5003;57877;39.750;-104.894;2023-02-11T15:45:24;0;0;
70436;PMS5003;57877;39.750;-104.894;2023-02-11T15:47:50;0;0;
70436;PMS5003;57877;39.750;-104.894;2023-02-11T15:50:19;0;0;
70436;PMS5003;57877;39.750;-104.894;2023-02-11T15:52:40;0;0;
70436;PMS5003;57877;39.750;-104.894;2023-02-11T15:57:31;0;0;
70436;PMS5003;57877;39.750;-104.894;2023-02-11T15:59:56;0;0;
70436;PMS5003;57877;39.750;-104.894;2023-02-11T16:02:23;0;0;
70436;PMS5003;57877;39.750;-104.894;2023-02-11T16:04:48;0;0;
70436;PMS5003;57877;39.750;-104.894;2023-02-11T16:09:39;0;0;
70436;PMS5003;57877;39.750;-104.894;2023-02-11T16:14:32;0;0;
70436;PMS5003;57877;39.750;-104.894;2023-02-11T16:16:58;0;0;
70436;PMS5003;57877;39.750;-104.894;2023-02-11T16:19:23;0;0;
70436;PMS5003;57877;39.750;-104.894;2023-02-11T16:21:49;0;0;
70436;PMS5003;57877;39.750;-104.894;2023-02-11T16:24:17;0;0;
70436;PMS5003;57877;39.750;-104.894;2023-02-11T16:26:45;0;0;
70436;PMS5003;57877;39.750;-104.894;2023-02-11T16:29:09;0;0;
70436;PMS5003;57877;39.750;-104.894;2023-02-11T16:31:34;0;0;
70436;PMS5003;57877;39.750;-104.894;2023-02-11T16:33:59;0;0;
70436;PMS5003;57877;39.750;-104.894;2023-02-11T16:36:25;0;0;
70436;PMS5003;57877;39.750;-104.894;2023-02-11T16:38:51;0;0;
70436;PMS5003;57877;39.750;-104.894;2023-02-11T16:41:17;0;0;
70436;PMS5003;57877;39.750;-104.894;2023-02-11T16:43:42;0;0;
70436;PMS5003;57877;39.750;-104.894;2023-02-11T16:46:09;0;0;
70436;PMS5003;57877;39.750;-104.894;2023-02-11T16:48:32;0;0;
70436;PMS5003;57877;39.750;-104.894;2023-02-11T16:50:57;0;0;
70436;PMS5003;57877;39.750;-104.894;2023-02-11T16:53:23;0;0;
70436;PMS5003;57877;39.750;-104.894;2023-02-11T16:55:48;0;0;